Terminal Aerodrome Forecast
Issued by NWS

Home | Current Version | Previous Version | Text Only | Print | Product List | Glossary On
Versions: 1 2 3 4 5 6 7 8 9 10 11 12 13 14 15
068
FTUS45 KRIW 122328
TAFJAC
TAF
KJAC 122328Z 1300/1324 VRB04KT P6SM SKC
     FM131000 01006KT P6SM SCT050 BKN090 OVC150
     FM132200 01006KT P6SM VCSH SCT015 BKN040 OVC090
      AMD LTD TO CLD VIS AND WIND=

USA.gov is the U.S. government's official web portal to all federal, state and local government web resources and services.